Time;durP1;ratioP1;P1;durP2;ratioP2;P2;SDS_P1;SDS_P2;PMS_P1;PMS_P2;Temp;Humidity;BMP_temperature;BMP_pressure;BME280_temperature;BME280_humidity;BME280_pressure;Samples;Min_cycle;Max_cycle;Signal;HPM_P1;HPM_P2
2022/10/20 00:01:07;;;;;;;7.67;5.97;;;;;;;20.77;42.81;101040.00;1678164;85;21091;-90
2022/10/20 00:03:33;;;;;;;9.83;5.55;;;;;;;20.77;42.82;101049.11;1718781;83;21036;-89
2022/10/20 00:06:26;;;;;;;8.65;5.80;;;;;;;20.76;42.82;101043.32;1720395;83;21135;-89
2022/10/20 00:08:54;;;;;;;10.53;6.12;;;;;;;20.77;42.81;101040.00;1714091;83;21786;-89
2022/10/20 00:11:21;;;;;;;7.47;5.70;;;;;;;20.75;42.82;101036.15;1714018;83;21056;-89
2022/10/20 00:13:49;;;;;;;7.05;5.40;;;;;;;20.76;42.82;101041.13;1713945;82;21053;-90
2022/10/20 00:16:16;;;;;;;8.58;5.75;;;;;;;20.75;42.82;101045.04;1713755;83;21542;-89
2022/10/20 00:18:42;;;;;;;8.60;5.50;;;;;;;20.75;42.82;101048.59;1713976;83;21088;-90
2022/10/20 00:21:12;;;;;;;7.50;5.33;;;;;;;20.75;42.82;101045.04;1714113;83;21618;-90
2022/10/20 00:23:38;;;;;;;12.10;5.90;;;;;;;20.75;42.83;101052.73;1713670;83;21618;-89
2022/10/20 00:26:15;;;;;;;8.73;5.40;;;;;;;20.76;42.83;101046.65;1714208;83;21499;-89
2022/10/20 00:28:41;;;;;;;7.05;5.22;;;;;;;20.75;42.84;101053.33;1713784;83;21502;-89
2022/10/20 00:31:08;;;;;;;7.05;5.47;;;;;;;20.76;42.85;101053.56;1714178;83;21072;-89
2022/10/20 00:33:35;;;;;;;7.00;5.22;;;;;;;20.75;42.84;101053.33;1714082;83;21017;-89
2022/10/20 00:36:04;;;;;;;7.00;5.37;;;;;;;20.75;42.85;101051.36;1695363;83;21510;-89
2022/10/20 00:38:31;;;;;;;7.70;5.03;;;;;;;20.75;42.84;101053.33;1695560;83;21558;-89
2022/10/20 00:41:02;;;;;;;7.33;5.03;;;;;;;20.75;42.84;101056.09;1685258;83;21074;-89
2022/10/20 00:43:50;;;;;;;8.63;4.80;;;;;;;20.75;42.85;101060.25;1664407;85;21046;-89
2022/10/20 00:46:38;;;;;;;6.33;4.75;;;;;;;20.75;42.84;101058.86;1682473;84;21149;-89
2022/10/20 00:49:21;;;;;;;6.90;4.95;;;;;;;20.74;42.83;101056.66;1682095;84;21027;-89
2022/10/20 00:51:48;;;;;;;5.83;4.55;;;;;;;20.74;42.80;101058.04;1682224;85;21085;-89
2022/10/20 00:54:18;;;;;;;7.05;5.12;;;;;;;20.75;42.80;101057.48;1681969;85;21032;-89
2022/10/20 00:56:45;;;;;;;7.72;5.30;;;;;;;20.74;42.81;101064.95;1682541;84;21098;-89
2022/10/20 00:59:13;;;;;;;6.65;4.97;;;;;;;20.74;42.81;101069.66;1642311;85;21182;-89
2022/10/20 01:01:40;;;;;;;7.55;5.17;;;;;;;20.73;42.81;101070.22;1681904;85;21640;-89
2022/10/20 01:04:06;;;;;;;7.22;4.62;;;;;;;20.73;42.83;101072.16;1664235;85;21071;-89
2022/10/20 01:06:32;;;;;;;8.00;5.60;;;;;;;20.73;42.81;101074.93;1682370;85;21062;-89
2022/10/20 01:08:58;;;;;;;6.03;4.60;;;;;;;20.74;42.81;101079.34;1711249;83;21677;-89
2022/10/20 01:11:42;;;;;;;7.28;5.03;;;;;;;20.73;42.81;101074.37;1693763;83;21808;-89
2022/10/20 01:14:20;;;;;;;7.30;4.47;;;;;;;20.74;42.80;101073.81;1699787;82;20976;-89
2022/10/20 01:17:26;;;;;;;7.45;4.75;;;;;;;20.73;42.81;101078.52;1687683;84;21135;-89
2022/10/20 01:20:12;;;;;;;6.92;4.72;;;;;;;20.73;42.78;101074.93;1687158;85;21127;-89
2022/10/20 01:23:12;;;;;;;6.55;5.03;;;;;;;20.73;42.79;101081.28;1686426;84;21060;-89
2022/10/20 01:26:20;;;;;;;7.15;4.30;;;;;;;20.72;42.78;101074.67;1686530;84;21143;-89
2022/10/20 01:29:27;;;;;;;6.75;4.85;;;;;;;20.72;42.78;101077.44;1695515;84;21090;-89
2022/10/20 01:32:02;;;;;;;7.12;4.80;;;;;;;20.70;42.76;101066.70;1690258;83;21375;-89
2022/10/20 01:34:48;;;;;;;7.58;4.50;;;;;;;20.69;42.76;101070.59;1689422;84;21111;-89
2022/10/20 01:37:22;;;;;;;6.17;4.50;;;;;;;20.69;42.77;101068.39;1695082;84;21149;-89
2022/10/20 01:39:59;;;;;;;7.35;5.08;;;;;;;20.69;42.76;101074.74;1670796;84;21158;-90
2022/10/20 01:42:25;;;;;;;6.05;4.17;;;;;;;20.68;42.79;101075.86;1669706;84;21083;-89
2022/10/20 01:44:55;;;;;;;5.80;4.47;;;;;;;20.68;42.80;101086.92;1671685;84;21129;-89
2022/10/20 01:47:22;;;;;;;5.67;4.27;;;;;;;20.68;42.80;101093.84;1676354;85;21130;-89
2022/10/20 01:49:48;;;;;;;6.03;4.03;;;;;;;20.67;42.82;101100.48;1666843;85;21620;-89
2022/10/20 01:52:14;;;;;;;6.95;4.50;;;;;;;20.69;42.80;101096.04;1696434;84;21127;-90
2022/10/20 01:54:40;;;;;;;6.62;4.35;;;;;;;20.69;42.81;101106.54;1638181;86;21428;-89
2022/10/20 01:57:34;;;;;;;7.35;4.37;;;;;;;20.69;42.82;101101.56;1689960;84;21102;-89
2022/10/20 02:00:15;;;;;;;6.12;4.40;;;;;;;20.70;42.79;101107.36;1688410;84;21615;-89
2022/10/20 02:03:22;;;;;;;6.37;4.12;;;;;;;20.69;42.77;101114.83;1685188;85;21095;-89
2022/10/20 02:06:09;;;;;;;7.55;4.80;;;;;;;20.69;42.76;101115.39;1684929;85;21546;-89
2022/10/20 02:08:46;;;;;;;6.00;4.12;;;;;;;20.68;42.77;101105.45;1685327;85;21080;-90
2022/10/20 02:11:41;;;;;;;5.42;4.15;;;;;;;20.68;42.76;101113.19;1685505;85;21127;-89
2022/10/20 02:14:10;;;;;;;6.08;3.98;;;;;;;20.68;42.75;101120.66;1663752;85;21069;-89
2022/10/20 02:16:50;;;;;;;6.53;4.42;;;;;;;20.67;42.75;101117.08;1685290;85;21123;-90
2022/10/20 02:19:19;;;;;;;6.30;4.37;;;;;;;20.66;42.77;101122.38;1685208;85;21510;-89
2022/10/20 02:21:45;;;;;;;5.87;4.50;;;;;;;20.66;42.76;101129.84;1685062;85;21080;-89
2022/10/20 02:24:11;;;;;;;7.72;4.67;;;;;;;20.66;42.76;101135.37;1685410;85;21072;-90
2022/10/20 02:26:38;;;;;;;6.83;4.50;;;;;;;20.66;42.76;101138.14;1663572;83;21730;-89
2022/10/20 02:29:12;;;;;;;5.70;4.22;;;;;;;20.67;42.77;101146.66;1684496;85;21177;-89
2022/10/20 02:31:38;;;;;;;5.95;4.33;;;;;;;20.65;42.75;101145.61;1684649;85;21680;-89
2022/10/20 02:34:04;;;;;;;6.45;4.45;;;;;;;20.67;42.75;101150.81;1684713;84;21062;-89
2022/10/20 02:36:33;;;;;;;7.15;4.10;;;;;;;20.67;42.76;101149.43;1684337;85;21047;-90
2022/10/20 02:39:05;;;;;;;6.83;4.22;;;;;;;20.67;42.72;101154.95;1684618;84;21093;-89
2022/10/20 02:41:31;;;;;;;7.25;4.05;;;;;;;20.67;42.72;101161.88;1684696;83;21628;-89
2022/10/20 02:43:57;;;;;;;5.80;4.08;;;;;;;20.67;42.74;101159.11;1684317;84;21276;-89
2022/10/20 02:46:24;;;;;;;5.47;3.90;;;;;;;20.67;42.74;101156.34;1682595;83;21049;-90
2022/10/20 02:48:50;;;;;;;6.30;4.10;;;;;;;20.67;42.76;101160.48;1662508;86;21378;-89
2022/10/20 02:51:17;;;;;;;5.30;4.00;;;;;;;20.69;42.75;101159.63;1662384;86;21089;-89
2022/10/20 02:53:44;;;;;;;4.72;3.70;;;;;;;20.70;42.75;101160.72;1662464;86;21086;-89
2022/10/20 02:56:11;;;;;;;5.83;3.80;;;;;;;20.73;42.73;101154.55;1662750;86;21077;-90
2022/10/20 02:58:37;;;;;;;5.60;3.65;;;;;;;20.77;42.69;101156.95;1662211;86;21486;-90
2022/10/20 03:01:04;;;;;;;5.55;3.90;;;;;;;20.82;42.65;101166.53;1662676;86;21750;-89
2022/10/20 03:03:30;;;;;;;5.12;3.50;;;;;;;20.87;42.59;101166.42;1662389;85;21054;-89
2022/10/20 03:06:12;;;;;;;6.28;3.65;;;;;;;20.94;42.51;101170.95;1662439;85;21112;-90
2022/10/20 03:08:38;;;;;;;5.72;3.90;;;;;;;21.01;42.44;101167.74;1683190;84;21092;-89
2022/10/20 03:11:05;;;;;;;6.17;3.80;;;;;;;21.09;42.34;101162.06;1692622;84;21146;-90
2022/10/20 03:13:31;;;;;;;4.08;3.15;;;;;;;21.17;42.27;101174.62;1687712;84;21072;-89
2022/10/20 03:15:57;;;;;;;5.35;3.52;;;;;;;21.26;42.17;101170.54;1693345;84;21081;-89
2022/10/20 03:18:24;;;;;;;4.83;3.45;;;;;;;21.34;42.08;101168.41;1687877;85;21382;-89
2022/10/20 03:20:51;;;;;;;5.67;3.40;;;;;;;21.44;41.97;101170.91;1688016;84;21057;-89
2022/10/20 03:23:18;;;;;;;5.08;3.70;;;;;;;21.54;41.87;101175.38;1687753;84;21040;-89
2022/10/20 03:25:44;;;;;;;4.55;3.40;;;;;;;21.65;41.76;101186.44;1687870;84;21321;-89
2022/10/20 03:28:10;;;;;;;6.12;3.60;;;;;;;21.75;41.62;101184.80;1693339;84;21080;-89
2022/10/20 03:30:42;;;;;;;4.28;3.37;;;;;;;21.84;41.51;101174.60;1693582;84;21116;-90
2022/10/20 03:33:09;;;;;;;4.67;3.55;;;;;;;21.95;41.39;101178.76;1669662;85;22051;-89
2022/10/20 03:35:35;;;;;;;5.30;3.70;;;;;;;22.06;41.27;101180.70;1687978;85;21071;-91
2022/10/20 03:38:01;;;;;;;5.53;3.70;;;;;;;22.16;41.12;101190.11;1687997;84;21542;-89
2022/10/20 03:40:27;;;;;;;4.97;3.42;;;;;;;22.24;41.02;101188.77;1690179;83;21116;-90
2022/10/20 03:42:54;;;;;;;5.90;3.62;;;;;;;22.35;40.87;101199.58;1692740;84;20965;-89
2022/10/20 03:45:20;;;;;;;5.25;3.52;;;;;;;22.42;40.76;101204.08;1691064;84;23903;-90
2022/10/20 03:47:46;;;;;;;4.70;3.42;;;;;;;22.49;40.64;101210.00;1657708;86;21091;-90
2022/10/20 03:50:12;;;;;;;5.08;3.58;;;;;;;22.54;40.57;101204.28;1641334;86;21142;-89
2022/10/20 03:52:38;;;;;;;5.17;3.27;;;;;;;22.58;40.46;101210.82;1641595;86;21030;-89
2022/10/20 03:55:11;;;;;;;5.80;3.58;;;;;;;22.62;40.40;101215.41;1661962;86;21093;-90
2022/10/20 03:57:37;;;;;;;5.62;4.03;;;;;;;22.66;40.36;101223.33;1661757;86;21029;-88
2022/10/20 04:00:05;;;;;;;4.92;3.15;;;;;;;22.71;40.29;101225.17;1662172;86;21105;-89
2022/10/20 04:02:44;;;;;;;4.83;3.40;;;;;;;22.74;40.23;101232.27;1662322;86;21065;-90
2022/10/20 04:05:18;;;;;;;5.62;3.35;;;;;;;22.78;40.18;101234.42;1662007;86;21033;-89
2022/10/20 04:07:44;;;;;;;5.03;3.47;;;;;;;22.81;40.12;101231.00;1662226;86;21101;-91
2022/10/20 04:10:11;;;;;;;6.80;3.33;;;;;;;22.83;40.11;101235.08;1662289;86;21126;-90
2022/10/20 04:12:37;;;;;;;4.83;2.90;;;;;;;22.86;40.09;101232.24;1662201;86;21066;-90
2022/10/20 04:15:05;;;;;;;7.08;3.17;;;;;;;22.87;40.08;101235.27;1651882;86;21587;-90
2022/10/20 04:17:32;;;;;;;5.95;3.33;;;;;;;22.91;40.08;101239.03;1634204;86;21537;-89
2022/10/20 04:19:59;;;;;;;6.08;3.33;;;;;;;22.92;40.06;101245.62;1635432;87;21088;-90
2022/10/20 04:22:25;;;;;;;5.20;3.10;;;;;;;22.96;39.99;101245.80;1635340;87;21622;-89
2022/10/20 04:24:51;;;;;;;6.83;3.62;;;;;;;22.99;39.94;101252.93;1635011;86;21095;-91
2022/10/20 04:27:18;;;;;;;7.85;2.87;;;;;;;23.01;39.88;101252.59;1635600;87;21139;-91
2022/10/20 04:29:46;;;;;;;5.53;2.95;;;;;;;23.04;39.82;101258.91;1634038;86;21086;-91
2022/10/20 04:32:12;;;;;;;6.80;3.95;;;;;;;23.06;39.77;101256.61;1621036;86;21111;-93
2022/10/20 04:34:39;;;;;;;4.70;3.25;;;;;;;23.07;39.69;101262.41;1609367;89;21138;-92
2022/10/20 04:37:05;;;;;;;4.65;2.92;;;;;;;23.06;39.66;101268.52;1609077;89;21088;-91
2022/10/20 04:39:31;;;;;;;5.67;2.90;;;;;;;23.05;39.63;101271.05;1661766;86;21493;-93
2022/10/20 04:41:58;;;;;;;6.90;3.10;;;;;;;23.06;39.59;101274.08;1655551;84;21085;-91
2022/10/20 04:44:25;;;;;;;5.62;2.98;;;;;;;23.08;39.49;101276.54;1637889;86;21210;-90
2022/10/20 04:46:54;;;;;;;13.45;3.40;;;;;;;23.09;39.35;101270.64;1664546;83;21158;-89
2022/10/20 04:49:21;;;;;;;12.67;3.40;;;;;;;23.07;39.24;101286.00;1673649;83;21113;-93
2022/10/20 04:51:53;;;;;;;12.47;3.40;;;;;;;23.08;39.20;101291.80;1693030;84;21582;-91
2022/10/20 04:54:19;;;;;;;17.87;3.60;;;;;;;23.06;38.93;101289.34;1691749;83;21121;-91
2022/10/20 04:56:46;;;;;;;14.85;3.55;;;;;;;22.97;38.94;101300.16;1697008;83;21053;-90
2022/10/20 04:59:15;;;;;;;25.17;3.85;;;;;;;22.96;38.82;101312.39;1701757;83;21722;-89
2022/10/20 05:01:41;;;;;;;16.57;3.30;;;;;;;22.94;38.74;101304.97;1693023;82;21042;-87
2022/10/20 05:04:10;;;;;;;23.60;3.85;;;;;;;22.96;38.75;101312.39;1697517;83;21124;-92
2022/10/20 05:06:36;;;;;;;16.57;3.85;;;;;;;22.96;38.77;101313.78;1690038;83;21465;-89
2022/10/20 05:09:05;;;;;;;29.52;3.33;;;;;;;22.99;38.78;101316.75;1708891;83;21077;-88
2022/10/20 05:11:34;;;;;;;14.38;3.72;;;;;;;23.03;38.78;101315.53;1698655;82;22544;-89
2022/10/20 05:14:01;;;;;;;22.58;3.50;;;;;;;23.06;38.80;101318.48;1666263;84;21599;-88
2022/10/20 05:16:27;;;;;;;24.37;3.70;;;;;;;23.08;38.88;101318.99;1691748;83;21030;-90
2022/10/20 05:18:54;;;;;;;18.77;4.25;;;;;;;23.11;38.92;101314.17;1714760;82;21566;-85
2022/10/20 05:21:23;;;;;;;18.27;3.85;;;;;;;23.15;38.94;101317.94;1698115;81;21106;-86
2022/10/20 05:23:56;;;;;;;16.57;3.80;;;;;;;23.19;38.96;101325.05;1703175;83;21298;-88
2022/10/20 05:26:22;;;;;;;13.98;4.12;;;;;;;23.21;38.95;101330.52;1708664;82;21117;-86
2022/10/20 05:28:49;;;;;;;15.45;4.17;;;;;;;23.26;38.94;101340.65;1702119;82;21112;-86
2022/10/20 05:31:17;;;;;;;21.82;4.80;;;;;;;23.30;38.94;101345.02;1699672;82;21128;-89
2022/10/20 05:33:45;;;;;;;11.45;4.65;;;;;;;23.32;38.90;101357.42;1713312;82;22431;-87
2022/10/20 05:36:17;;;;;;;13.15;4.58;;;;;;;23.33;38.88;101361.02;1699159;82;21096;-87
2022/10/20 05:38:43;;;;;;;16.85;4.80;;;;;;;23.34;38.90;101371.78;1692317;82;21089;-86
2022/10/20 05:41:16;;;;;;;12.05;5.17;;;;;;;23.35;38.91;101372.60;1706514;81;21131;-91
2022/10/20 05:43:52;;;;;;;17.92;4.80;;;;;;;23.36;38.92;101377.84;1696972;82;21118;-91
2022/10/20 05:46:18;;;;;;;11.70;5.35;;;;;;;23.39;38.96;101380.53;1684811;82;21126;-86
2022/10/20 05:48:45;;;;;;;12.60;5.53;;;;;;;23.41;39.04;101379.66;1684055;83;21745;-87
2022/10/20 05:51:14;;;;;;;15.80;5.17;;;;;;;23.44;39.09;101390.96;1688555;83;21701;-86
2022/10/20 05:53:40;;;;;;;17.50;5.15;;;;;;;23.45;39.13;101395.38;1662582;83;21172;-88
2022/10/20 05:56:09;;;;;;;25.23;5.10;;;;;;;23.44;39.18;101404.02;1689767;83;21416;-90
2022/10/20 05:58:35;;;;;;;32.90;4.60;;;;;;;23.42;39.22;101416.01;1689453;83;21081;-90
2022/10/20 06:01:18;;;;;;;19.20;4.50;;;;;;;23.40;39.24;101422.44;1696222;83;21955;-87
2022/10/20 06:03:56;;;;;;;23.98;4.70;;;;;;;23.40;39.22;101421.88;1689431;83;21321;-83
2022/10/20 06:06:25;;;;;;;25.68;4.35;;;;;;;23.38;39.29;101426.13;1680582;83;21115;-87
2022/10/20 06:08:52;;;;;;;25.70;4.78;;;;;;;23.38;39.38;101435.25;1689467;83;21085;-86
2022/10/20 06:11:19;;;;;;;25.15;4.35;;;;;;;23.39;39.45;101424.97;1683720;83;21066;-86
2022/10/20 06:13:45;;;;;;;18.50;4.35;;;;;;;23.42;39.47;101421.00;1698173;83;21075;-87
2022/10/20 06:16:15;;;;;;;17.62;3.85;;;;;;;23.45;39.50;101423.16;1690184;83;21336;-87
2022/10/20 06:18:44;;;;;;;20.03;3.90;;;;;;;23.48;39.51;101420.30;1684329;83;21684;-87
2022/10/20 06:21:14;;;;;;;18.77;4.55;;;;;;;23.51;39.53;101433.52;1680889;83;22216;-88
2022/10/20 06:23:40;;;;;;;21.40;4.62;;;;;;;23.55;39.50;101442.88;1682822;83;21080;-87
2022/10/20 06:26:10;;;;;;;25.17;4.75;;;;;;;23.56;39.49;101448.09;1674340;83;21144;-86
2022/10/20 06:28:37;;;;;;;18.50;5.10;;;;;;;23.58;39.48;101449.99;1678573;83;21096;-87
2022/10/20 06:31:19;;;;;;;17.80;4.90;;;;;;;23.61;39.47;101453.50;1688313;83;21077;-88
2022/10/20 06:33:45;;;;;;;15.65;4.45;;;;;;;23.61;39.49;101457.67;1686452;83;21115;-87
2022/10/20 06:36:12;;;;;;;15.23;5.28;;;;;;;23.63;39.48;101451.80;1684067;83;21082;-88
2022/10/20 06:38:38;;;;;;;14.83;4.97;;;;;;;23.63;39.49;101455.41;1682857;83;21136;-90
2022/10/20 06:41:07;;;;;;;16.30;5.03;;;;;;;23.66;39.49;101457.53;1684545;83;21608;-91
2022/10/20 06:43:34;;;;;;;20.60;4.85;;;;;;;23.68;39.49;101457.78;1657200;83;21066;-87
2022/10/20 06:46:02;;;;;;;17.65;5.53;;;;;;;23.70;39.51;101461.04;1686239;83;21143;-88
2022/10/20 06:48:28;;;;;;;17.30;5.30;;;;;;;23.72;39.53;101464.33;1697994;83;21115;-90
2022/10/20 06:50:57;;;;;;;20.82;4.72;;;;;;;23.71;39.57;101464.89;1688535;83;21520;-89
2022/10/20 06:53:24;;;;;;;25.90;4.97;;;;;;;23.68;39.57;101466.91;1703157;80;21514;-91
2022/10/20 06:56:01;;;;;;;18.15;5.03;;;;;;;23.62;39.50;101464.88;1689845;83;21045;-85
2022/10/20 06:58:28;;;;;;;31.30;3.90;;;;;;;23.54;39.42;101471.78;1689703;83;21727;-87
2022/10/20 07:01:10;;;;;;;30.20;3.72;;;;;;;23.49;39.42;101476.91;1695430;83;22000;-89
2022/10/20 07:03:36;;;;;;;19.37;3.15;;;;;;;23.46;39.38;101473.97;1702026;83;21288;-89
2022/10/20 07:06:04;;;;;;;25.97;4.17;;;;;;;23.40;39.35;101484.92;1687600;83;21117;-88
2022/10/20 07:08:31;;;;;;;16.48;3.67;;;;;;;23.36;39.37;101486.70;1699023;83;21080;-91
2022/10/20 07:11:08;;;;;;;23.12;4.03;;;;;;;23.33;39.45;101486.78;1699600;83;21128;-89
2022/10/20 07:13:36;;;;;;;28.98;4.00;;;;;;;23.33;39.54;101488.17;1712089;82;21311;-89
2022/10/20 07:16:03;;;;;;;16.70;3.42;;;;;;;23.32;39.65;101483.75;1689156;83;21159;-88
2022/10/20 07:18:36;;;;;;;31.15;4.53;;;;;;;23.32;39.73;101480.16;1673303;83;21733;-89
2022/10/20 07:21:08;;;;;;;18.10;3.83;;;;;;;23.31;39.78;101491.00;1684401;83;21104;-87
2022/10/20 07:23:34;;;;;;;15.35;3.40;;;;;;;23.29;39.82;101483.58;1697205;82;21068;-88
2022/10/20 07:26:09;;;;;;;20.95;4.20;;;;;;;23.28;39.87;101487.48;1695943;83;21188;-87
2022/10/20 07:28:36;;;;;;;12.82;3.27;;;;;;;23.25;39.90;101483.97;1695595;83;21663;-88
2022/10/20 07:31:08;;;;;;;13.32;3.75;;;;;;;23.22;39.95;101489.00;1707984;83;21077;-87
2022/10/20 07:33:34;;;;;;;18.35;4.10;;;;;;;23.20;39.99;101489.09;1694192;83;21844;-89
2022/10/20 07:36:01;;;;;;;17.17;4.33;;;;;;;23.17;40.02;101480.81;1688588;83;21698;-86
2022/10/20 07:38:27;;;;;;;12.80;3.72;;;;;;;23.15;40.05;101480.89;1690621;83;21071;-87
2022/10/20 07:40:55;;;;;;;14.10;3.62;;;;;;;23.11;40.11;101479.89;1682572;83;21028;-88
2022/10/20 07:43:21;;;;;;;12.60;3.65;;;;;;;23.09;40.16;101483.54;1700359;83;21076;-91
2022/10/20 07:45:48;;;;;;;14.65;3.70;;;;;;;23.09;40.19;101498.80;1648614;84;22018;-88
2022/10/20 07:48:14;;;;;;;20.85;4.37;;;;;;;23.04;40.25;101503.92;1699383;83;21165;-84
2022/10/20 07:50:40;;;;;;;37.73;4.72;;;;;;;23.02;40.40;101511.76;1704033;83;21053;-89
2022/10/20 07:53:13;;;;;;;36.70;4.37;;;;;;;22.94;40.37;101512.52;1695022;83;21150;-92
2022/10/20 07:55:39;;;;;;;34.18;4.37;;;;;;;22.88;40.52;101511.00;1703843;83;21574;-89
2022/10/20 07:58:06;;;;;;;34.65;4.10;;;;;;;22.87;40.50;101514.94;1697336;83;21140;-89
2022/10/20 08:00:33;;;;;;;40.55;3.95;;;;;;;22.83;40.51;101517.27;1687723;83;21105;-90
2022/10/20 08:02:59;;;;;;;33.25;3.40;;;;;;;22.76;40.49;101514.36;1677065;83;21133;-90
2022/10/20 08:05:26;;;;;;;42.15;4.22;;;;;;;22.69;40.50;101523.70;1684132;83;21274;-88
2022/10/20 08:07:52;;;;;;;42.35;4.30;;;;;;;22.65;40.61;101531.53;1695083;83;21067;-88
2022/10/20 08:10:18;;;;;;;41.10;3.60;;;;;;;22.61;40.55;101529.97;1679411;83;21120;-89
2022/10/20 08:12:45;;;;;;;38.13;4.78;;;;;;;22.58;40.59;101534.73;1680900;83;21148;-87
2022/10/20 08:15:11;;;;;;;33.08;4.85;;;;;;;22.57;40.61;101540.61;1692388;83;21097;-90
2022/10/20 08:17:38;;;;;;;25.70;3.75;;;;;;;22.54;40.59;101544.81;1694474;83;21110;-92
2022/10/20 08:20:06;;;;;;;26.12;4.40;;;;;;;22.51;40.59;101544.06;1698550;83;21121;-87
2022/10/20 08:22:32;;;;;;;31.50;4.12;;;;;;;22.50;40.59;101546.57;1685207;83;21654;-90
2022/10/20 08:25:00;;;;;;;20.05;4.40;;;;;;;22.51;40.58;101551.55;1696899;82;21091;-89
2022/10/20 08:27:31;;;;;;;29.65;3.65;;;;;;;22.48;40.59;101548.03;1645186;84;21090;-89
2022/10/20 08:29:55;;;;;;;15.28;3.62;;;;;;;22.47;40.58;101548.59;1670695;84;39539;-86
2022/10/20 08:32:22;;;;;;;22.17;3.80;;;;;;;22.45;40.57;101546.69;1668294;84;21052;-87
2022/10/20 08:34:48;;;;;;;21.57;3.85;;;;;;;22.44;40.59;101549.78;1690633;83;21066;-89
2022/10/20 08:37:17;;;;;;;18.35;3.50;;;;;;;22.42;40.57;101550.09;1702908;82;21579;-89
2022/10/20 08:39:45;;;;;;;25.32;3.87;;;;;;;22.42;40.59;101552.03;1700269;83;21121;-88
2022/10/20 08:42:13;;;;;;;26.02;4.75;;;;;;;22.40;40.59;101549.59;1666712;83;21175;-90
2022/10/20 08:44:42;;;;;;;18.90;3.67;;;;;;;22.38;40.55;101549.08;1688848;83;21146;-85
2022/10/20 08:47:33;;;;;;;23.45;3.85;;;;;;;22.35;40.53;101557.20;1661948;83;21609;-89
2022/10/20 08:50:00;;;;;;;20.02;3.25;;;;;;;22.29;40.51;101553.14;1700104;83;21116;-92
2022/10/20 08:52:32;;;;;;;9.30;3.20;;;;;;;22.26;40.33;101557.11;1707369;83;21109;-87
2022/10/20 08:54:59;;;;;;;24.75;3.27;;;;;;;22.22;40.14;101550.55;1697888;82;21134;-88
2022/10/20 08:57:30;;;;;;;17.10;2.55;;;;;;;22.14;40.01;101549.89;1685347;82;21072;-88
2022/10/20 09:00:19;;;;;;;18.65;2.50;;;;;;;22.12;39.94;101559.07;1701942;82;21044;-85
2022/10/20 09:02:47;;;;;;;17.42;2.62;;;;;;;22.09;39.81;101559.70;1696395;83;21025;-88
2022/10/20 09:05:16;;;;;;;22.45;2.62;;;;;;;22.06;39.54;101562.54;1696148;83;21122;-88
2022/10/20 09:07:42;;;;;;;14.03;2.17;;;;;;;22.03;39.41;101560.92;1701683;83;21188;-87
2022/10/20 09:10:32;;;;;;;16.25;2.30;;;;;;;22.03;39.35;101567.85;1675439;83;21928;-88
2022/10/20 09:12:59;;;;;;;17.07;2.58;;;;;;;22.03;39.39;101567.85;1691365;83;21713;-88
2022/10/20 09:15:25;;;;;;;14.38;2.30;;;;;;;22.03;39.46;101563.70;1695488;83;21087;-88
2022/10/20 09:18:08;;;;;;;13.32;2.52;;;;;;;22.04;39.59;101575.04;1685495;83;21147;-87
2022/10/20 09:21:01;;;;;;;17.45;2.77;;;;;;;22.04;39.65;101571.71;1707201;82;22094;-88
2022/10/20 09:23:40;;;;;;;18.85;2.92;;;;;;;22.01;39.75;101568.73;1688238;82;21948;-90
2022/10/20 09:26:15;;;;;;;11.75;2.37;;;;;;;22.02;39.99;101574.55;1717533;82;21621;-89
2022/10/20 09:28:42;;;;;;;11.80;2.45;;;;;;;22.01;39.96;101583.42;1701019;82;21002;-87
2022/10/20 09:31:32;;;;;;;8.68;2.33;;;;;;;22.02;40.02;101577.31;1716665;82;20940;-87
2022/10/20 09:33:59;;;;;;;17.92;2.77;;;;;;;22.03;40.12;101581.70;1694065;82;21550;-89
2022/10/20 09:36:30;;;;;;;10.85;2.80;;;;;;;22.01;40.22;101577.05;1712971;82;21096;-87
2022/10/20 09:38:56;;;;;;;20.52;3.15;;;;;;;22.00;40.31;101585.10;1691140;82;21140;-90
2022/10/20 09:41:29;;;;;;;15.43;2.55;;;;;;;22.00;40.67;101581.77;1698240;83;22177;-86
2022/10/20 09:44:11;;;;;;;7.87;3.17;;;;;;;21.99;40.80;101582.06;1695731;83;21085;-86
2022/10/20 09:46:47;;;;;;;13.15;2.80;;;;;;;21.98;40.80;101577.68;1672306;82;21029;-87
2022/10/20 09:49:33;;;;;;;15.68;2.60;;;;;;;21.96;40.69;101576.59;1712953;83;21183;-89
2022/10/20 09:53:00;;;;;;;20.88;3.20;;;;;;;21.93;40.58;101581.38;1690257;83;21168;-88
2022/10/20 09:55:18;;;;;;;19.73;2.47;;;;;;;21.91;40.45;101589.13;1677334;83;21091;-85
2022/10/20 09:57:47;;;;;;;9.33;2.83;;;;;;;21.90;40.42;101585.30;1675986;82;21033;-83
2022/10/20 10:00:37;;;;;;;20.25;2.22;;;;;;;21.91;40.34;101582.76;1688991;83;22641;-85
2022/10/20 10:03:18;;;;;;;15.93;2.57;;;;;;;21.90;40.30;101585.30;1705701;83;21064;-92
2022/10/20 10:06:15;;;;;;;16.25;3.40;;;;;;;21.87;40.16;101584.77;1659931;84;21103;-88
2022/10/20 10:08:51;;;;;;;17.90;3.60;;;;;;;21.85;40.27;101575.92;1643687;85;21117;-88
2022/10/20 10:11:21;;;;;;;16.67;2.33;;;;;;;21.81;40.29;101567.98;1591212;85;21102;-89
2022/10/20 10:13:55;;;;;;;16.32;2.92;;;;;;;21.83;40.26;101578.20;1660041;85;21370;-89
2022/10/20 10:16:26;;;;;;;11.78;2.10;;;;;;;21.85;40.32;101579.29;1650173;85;21292;-91
2022/10/20 10:19:01;;;;;;;12.53;2.42;;;;;;;21.86;40.36;101589.22;1653743;85;21058;-90
2022/10/20 10:21:30;;;;;;;8.63;2.33;;;;;;;21.85;40.32;101584.24;1633101;86;21100;-91
2022/10/20 10:24:00;;;;;;;11.93;2.52;;;;;;;21.85;40.22;101587.02;1589014;86;21068;-89
2022/10/20 10:26:49;;;;;;;6.53;1.75;;;;;;;21.87;39.99;101579.78;1631173;85;21554;-90
2022/10/20 10:29:25;;;;;;;8.10;1.80;;;;;;;21.87;39.99;101579.78;1641760;85;21201;-87
2022/10/20 10:31:59;;;;;;;12.78;1.90;;;;;;;21.86;40.14;101581.73;1655871;84;21099;-88
2022/10/20 10:34:39;;;;;;;10.45;1.82;;;;;;;21.87;40.06;101577.84;1675347;83;21210;-90
2022/10/20 10:37:13;;;;;;;;;;;;;;;21.87;39.94;101579.78;1650505;85;21158;-90
2022/10/20 10:39:42;;;;;;;11.08;2.05;;;;;;;21.86;39.86;101577.58;1628222;86;20224;-88
2022/10/20 10:42:56;;;;;;;8.83;1.75;;;;;;;21.84;39.82;101572.92;1636719;84;21076;-88
2022/10/20 10:45:40;;;;;;;10.68;2.15;;;;;;;21.84;39.64;101580.41;1689135;83;21151;-88
2022/10/20 10:48:30;;;;;;;6.75;1.72;;;;;;;21.79;39.56;101572.20;1620708;87;21155;-89
2022/10/20 10:51:02;;;;;;;5.72;1.70;;;;;;;21.76;39.26;101564.52;1683163;83;21810;-87
2022/10/20 10:54:16;;;;;;;11.12;2.20;;;;;;;21.72;39.11;101557.94;1694646;83;21737;-86
2022/10/20 10:56:49;;;;;;;26.70;2.75;;;;;;;21.70;39.04;101554.64;1685434;83;21145;-91
2022/10/20 10:59:46;;;;;;;21.68;2.12;;;;;;;21.67;39.02;101546.41;1686052;83;21116;-89
2022/10/20 11:02:55;;;;;;;26.12;3.15;;;;;;;21.64;39.32;101543.43;1684893;83;21117;-85
2022/10/20 11:05:35;;;;;;;26.42;2.35;;;;;;;21.66;39.46;101547.52;1647903;83;21959;-88
2022/10/20 11:08:35;;;;;;;30.48;2.60;;;;;;;21.69;39.61;101538.59;1686843;83;21948;-90
2022/10/20 11:11:09;;;;;;;23.55;2.40;;;;;;;21.72;39.62;101541.33;1675640;81;21242;-92
2022/10/20 11:13:44;;;;;;;17.95;2.20;;;;;;;21.71;39.69;101536.91;1673383;84;21128;-90
2022/10/20 11:16:25;;;;;;;20.10;2.35;;;;;;;21.72;39.74;101533.02;1698204;83;21133;-91
2022/10/20 11:19:31;;;;;;;25.88;3.98;;;;;;;21.72;39.80;101528.30;1685379;83;21092;-91
2022/10/20 11:22:30;;;;;;;18.30;2.40;;;;;;;21.73;39.73;101523.00;1703993;83;21623;-89
2022/10/20 11:25:33;;;;;;;17.40;2.30;;;;;;;21.72;39.67;101524.70;1697549;83;21361;-88
2022/10/20 11:27:59;;;;;;;;;;;;;;;21.70;39.65;101520.84;1689174;83;21049;-87
2022/10/20 11:30:26;;;;;;;17.62;2.45;;;;;;;21.68;39.53;101515.37;1692061;83;20701;-87
2022/10/20 11:33:07;;;;;;;9.98;2.25;;;;;;;21.66;39.56;101510.13;1709656;83;21490;-88
2022/10/20 11:35:58;;;;;;;16.37;2.08;;;;;;;21.66;39.56;101510.70;1715141;83;21049;-88
2022/10/20 11:38:51;;;;;;;16.15;3.00;;;;;;;21.66;39.48;101507.36;1697116;83;21246;-88
2022/10/20 11:41:23;;;;;;;10.63;2.08;;;;;;;21.66;39.42;101503.21;1680528;83;21089;-88
2022/10/20 11:44:19;;;;;;;11.80;2.47;;;;;;;21.65;39.45;101502.95;1702056;83;21089;-88
2022/10/20 11:47:14;;;;;;;13.70;2.37;;;;;;;21.67;39.44;101503.47;1683219;83;21095;-87